sensor_id;sensor_type;location;lat;lon;timestamp;temperature;humidity
22383;DHT22;11359;45.802;13.530;2022-12-29T00:01:34;18.30;48.50
22383;DHT22;11359;45.802;13.530;2022-12-29T00:03:59;18.30;48.50
22383;DHT22;11359;45.802;13.530;2022-12-29T00:06:25;18.20;48.60
22383;DHT22;11359;45.802;13.530;2022-12-29T00:08:51;18.20;48.70
22383;DHT22;11359;45.802;13.530;2022-12-29T00:11:18;18.20;48.80
22383;DHT22;11359;45.802;13.530;2022-12-29T00:13:43;18.10;48.80
22383;DHT22;11359;45.802;13.530;2022-12-29T00:16:28;18.10;48.90
22383;DHT22;11359;45.802;13.530;2022-12-29T00:18:54;18.10;48.90
22383;DHT22;11359;45.802;13.530;2022-12-29T00:21:20;18.10;49.00
22383;DHT22;11359;45.802;13.530;2022-12-29T00:24:05;18.00;49.00
22383;DHT22;11359;45.802;13.530;2022-12-29T00:26:50;18.00;49.10
22383;DHT22;11359;45.802;13.530;2022-12-29T00:29:37;17.90;49.10
22383;DHT22;11359;45.802;13.530;2022-12-29T00:32:21;17.90;49.40
22383;DHT22;11359;45.802;13.530;2022-12-29T00:35:06;17.90;49.30
22383;DHT22;11359;45.802;13.530;2022-12-29T00:37:38;17.80;49.30
22383;DHT22;11359;45.802;13.530;2022-12-29T00:40:24;17.80;49.40
22383;DHT22;11359;45.802;13.530;2022-12-29T00:43:08;17.80;49.50
22383;DHT22;11359;45.802;13.530;2022-12-29T00:45:51;17.70;49.50
22383;DHT22;11359;45.802;13.530;2022-12-29T00:48:17;17.70;49.50
22383;DHT22;11359;45.802;13.530;2022-12-29T00:51:06;17.70;49.60
22383;DHT22;11359;45.802;13.530;2022-12-29T00:53:32;17.70;49.60
22383;DHT22;11359;45.802;13.530;2022-12-29T00:55:58;17.60;49.70
22383;DHT22;11359;45.802;13.530;2022-12-29T00:58:23;17.60;49.70
22383;DHT22;11359;45.802;13.530;2022-12-29T01:00:49;17.60;49.80
22383;DHT22;11359;45.802;13.530;2022-12-29T01:03:14;17.50;49.90
22383;DHT22;11359;45.802;13.530;2022-12-29T01:05:40;17.50;49.90
22383;DHT22;11359;45.802;13.530;2022-12-29T01:08:05;17.50;50.00
22383;DHT22;11359;45.802;13.530;2022-12-29T01:10:31;17.40;50.00
22383;DHT22;11359;45.802;13.530;2022-12-29T01:12:56;17.40;50.00
22383;DHT22;11359;45.802;13.530;2022-12-29T01:15:22;17.40;50.00
22383;DHT22;11359;45.802;13.530;2022-12-29T01:17:48;17.30;50.10
22383;DHT22;11359;45.802;13.530;2022-12-29T01:20:13;17.30;50.20
22383;DHT22;11359;45.802;13.530;2022-12-29T01:22:39;17.30;50.20
22383;DHT22;11359;45.802;13.530;2022-12-29T01:25:05;17.30;50.30
22383;DHT22;11359;45.802;13.530;2022-12-29T01:27:30;17.30;50.30
22383;DHT22;11359;45.802;13.530;2022-12-29T01:29:56;17.20;50.30
22383;DHT22;11359;45.802;13.530;2022-12-29T01:32:22;17.20;50.30
22383;DHT22;11359;45.802;13.530;2022-12-29T01:34:47;17.20;50.40
22383;DHT22;11359;45.802;13.530;2022-12-29T01:37:13;17.20;50.50
22383;DHT22;11359;45.802;13.530;2022-12-29T01:39:38;17.10;50.40
22383;DHT22;11359;45.802;13.530;2022-12-29T01:42:04;17.10;50.50
22383;DHT22;11359;45.802;13.530;2022-12-29T01:45:30;17.10;50.50
22383;DHT22;11359;45.802;13.530;2022-12-29T01:49:53;17.00;50.70
22383;DHT22;11359;45.802;13.530;2022-12-29T01:52:19;17.00;50.70
22383;DHT22;11359;45.802;13.530;2022-12-29T01:54:50;16.90;50.70
22383;DHT22;11359;45.802;13.530;2022-12-29T01:57:17;16.90;50.70
22383;DHT22;11359;45.802;13.530;2022-12-29T01:59:45;16.90;50.80
22383;DHT22;11359;45.802;13.530;2022-12-29T02:02:13;16.90;50.80
22383;DHT22;11359;45.802;13.530;2022-12-29T02:04:40;16.90;50.90
22383;DHT22;11359;45.802;13.530;2022-12-29T02:07:11;16.80;51.00
22383;DHT22;11359;45.802;13.530;2022-12-29T02:09:38;16.80;51.00
22383;DHT22;11359;45.802;13.530;2022-12-29T02:12:04;16.80;51.10
22383;DHT22;11359;45.802;13.530;2022-12-29T02:14:30;16.80;51.10
22383;DHT22;11359;45.802;13.530;2022-12-29T02:22:30;16.70;51.10
22383;DHT22;11359;45.802;13.530;2022-12-29T02:27:50;16.60;51.80
22383;DHT22;11359;45.802;13.530;2022-12-29T02:51:10;16.30;51.60
22383;DHT22;11359;45.802;13.530;2022-12-29T02:53:37;16.30;51.60
22383;DHT22;11359;45.802;13.530;2022-12-29T02:56:21;16.30;51.70
22383;DHT22;11359;45.802;13.530;2022-12-29T02:58:47;16.30;51.80
22383;DHT22;11359;45.802;13.530;2022-12-29T03:06:37;16.20;52.00
22383;DHT22;11359;45.802;13.530;2022-12-29T03:11:58;16.20;52.20
22383;DHT22;11359;45.802;13.530;2022-12-29T03:20:08;16.10;52.20
22383;DHT22;11359;45.802;13.530;2022-12-29T03:22:34;16.10;52.20
22383;DHT22;11359;45.802;13.530;2022-12-29T03:25:07;16.10;52.10
22383;DHT22;11359;45.802;13.530;2022-12-29T03:27:38;16.00;52.10
22383;DHT22;11359;45.802;13.530;2022-12-29T03:30:05;16.00;52.20
22383;DHT22;11359;45.802;13.530;2022-12-29T03:32:32;16.00;52.30
22383;DHT22;11359;45.802;13.530;2022-12-29T03:34:58;16.00;52.50
22383;DHT22;11359;45.802;13.530;2022-12-29T03:37:26;16.00;52.50
22383;DHT22;11359;45.802;13.530;2022-12-29T03:39:53;16.00;52.60
22383;DHT22;11359;45.802;13.530;2022-12-29T03:42:19;16.00;52.60
22383;DHT22;11359;45.802;13.530;2022-12-29T03:44:46;15.90;52.70
22383;DHT22;11359;45.802;13.530;2022-12-29T03:47:12;16.00;52.80
22383;DHT22;11359;45.802;13.530;2022-12-29T03:49:38;15.90;52.80
22383;DHT22;11359;45.802;13.530;2022-12-29T03:52:04;15.90;52.80
22383;DHT22;11359;45.802;13.530;2022-12-29T03:54:30;15.90;52.90
22383;DHT22;11359;45.802;13.530;2022-12-29T03:56:56;15.90;52.90
22383;DHT22;11359;45.802;13.530;2022-12-29T03:59:21;15.90;53.00
22383;DHT22;11359;45.802;13.530;2022-12-29T04:01:47;15.90;53.00
22383;DHT22;11359;45.802;13.530;2022-12-29T04:04:13;15.80;53.00
22383;DHT22;11359;45.802;13.530;2022-12-29T04:06:38;15.80;53.00
22383;DHT22;11359;45.802;13.530;2022-12-29T04:09:04;15.80;53.10
22383;DHT22;11359;45.802;13.530;2022-12-29T04:11:30;15.80;53.10
22383;DHT22;11359;45.802;13.530;2022-12-29T04:13:55;15.70;53.10
22383;DHT22;11359;45.802;13.530;2022-12-29T04:16:21;15.70;53.10
22383;DHT22;11359;45.802;13.530;2022-12-29T04:18:46;15.70;53.20
22383;DHT22;11359;45.802;13.530;2022-12-29T04:21:12;15.70;53.80
22383;DHT22;11359;45.802;13.530;2022-12-29T04:23:38;15.70;53.20
22383;DHT22;11359;45.802;13.530;2022-12-29T04:26:04;15.70;53.20
22383;DHT22;11359;45.802;13.530;2022-12-29T04:28:32;15.70;53.20
22383;DHT22;11359;45.802;13.530;2022-12-29T04:30:58;15.70;53.20
22383;DHT22;11359;45.802;13.530;2022-12-29T04:33:23;15.70;53.30
22383;DHT22;11359;45.802;13.530;2022-12-29T04:35:49;15.60;53.20
22383;DHT22;11359;45.802;13.530;2022-12-29T04:38:15;15.60;53.30
22383;DHT22;11359;45.802;13.530;2022-12-29T04:40:41;15.60;53.30
22383;DHT22;11359;45.802;13.530;2022-12-29T04:43:07;15.50;53.30
22383;DHT22;11359;45.802;13.530;2022-12-29T04:45:33;15.50;53.30
22383;DHT22;11359;45.802;13.530;2022-12-29T04:47:58;15.50;53.30
22383;DHT22;11359;45.802;13.530;2022-12-29T04:50:24;15.50;53.40
22383;DHT22;11359;45.802;13.530;2022-12-29T04:52:49;15.50;53.50
22383;DHT22;11359;45.802;13.530;2022-12-29T04:55:15;15.50;53.50
22383;DHT22;11359;45.802;13.530;2022-12-29T04:57:41;15.50;53.60
22383;DHT22;11359;45.802;13.530;2022-12-29T05:00:06;15.40;53.60
22383;DHT22;11359;45.802;13.530;2022-12-29T05:02:34;15.40;53.60
22383;DHT22;11359;45.802;13.530;2022-12-29T05:04:59;15.40;53.70
22383;DHT22;11359;45.802;13.530;2022-12-29T05:07:25;15.40;53.80
22383;DHT22;11359;45.802;13.530;2022-12-29T05:09:50;15.40;53.80
22383;DHT22;11359;45.802;13.530;2022-12-29T05:12:16;15.40;53.90
22383;DHT22;11359;45.802;13.530;2022-12-29T05:14:41;15.30;54.00
22383;DHT22;11359;45.802;13.530;2022-12-29T05:17:07;15.40;54.10
22383;DHT22;11359;45.802;13.530;2022-12-29T05:19:33;15.40;54.10
22383;DHT22;11359;45.802;13.530;2022-12-29T05:21:58;15.40;54.10
22383;DHT22;11359;45.802;13.530;2022-12-29T05:24:24;15.40;54.20
22383;DHT22;11359;45.802;13.530;2022-12-29T05:26:49;15.40;54.20
22383;DHT22;11359;45.802;13.530;2022-12-29T05:29:15;15.40;54.20
22383;DHT22;11359;45.802;13.530;2022-12-29T05:31:40;15.40;54.20
22383;DHT22;11359;45.802;13.530;2022-12-29T05:34:06;15.40;54.20
22383;DHT22;11359;45.802;13.530;2022-12-29T05:36:31;15.40;54.30
22383;DHT22;11359;45.802;13.530;2022-12-29T05:38:57;15.40;54.30
22383;DHT22;11359;45.802;13.530;2022-12-29T05:41:23;15.40;54.40
22383;DHT22;11359;45.802;13.530;2022-12-29T05:43:48;15.40;54.30
22383;DHT22;11359;45.802;13.530;2022-12-29T05:46:14;15.40;54.30
22383;DHT22;11359;45.802;13.530;2022-12-29T05:48:39;15.50;54.30
22383;DHT22;11359;45.802;13.530;2022-12-29T05:51:05;15.50;54.30
22383;DHT22;11359;45.802;13.530;2022-12-29T05:53:31;15.50;54.40
22383;DHT22;11359;45.802;13.530;2022-12-29T05:55:56;15.50;54.40
22383;DHT22;11359;45.802;13.530;2022-12-29T05:58:22;15.50;54.50
22383;DHT22;11359;45.802;13.530;2022-12-29T06:00:47;15.50;54.50
22383;DHT22;11359;45.802;13.530;2022-12-29T06:03:13;15.60;54.60
22383;DHT22;11359;45.802;13.530;2022-12-29T06:05:38;15.60;54.60
22383;DHT22;11359;45.802;13.530;2022-12-29T06:08:04;15.60;54.60
22383;DHT22;11359;45.802;13.530;2022-12-29T06:10:30;15.70;54.60
22383;DHT22;11359;45.802;13.530;2022-12-29T06:12:55;15.70;54.60
22383;DHT22;11359;45.802;13.530;2022-12-29T06:15:21;15.70;54.60
22383;DHT22;11359;45.802;13.530;2022-12-29T06:17:46;15.70;54.70
22383;DHT22;11359;45.802;13.530;2022-12-29T06:20:12;15.80;54.70
22383;DHT22;11359;45.802;13.530;2022-12-29T06:22:37;15.80;54.70
22383;DHT22;11359;45.802;13.530;2022-12-29T06:25:03;15.80;54.70
22383;DHT22;11359;45.802;13.530;2022-12-29T06:27:29;15.90;54.60
22383;DHT22;11359;45.802;13.530;2022-12-29T06:29:54;15.90;54.60
22383;DHT22;11359;45.802;13.530;2022-12-29T06:32:20;16.00;54.70
22383;DHT22;11359;45.802;13.530;2022-12-29T06:34:46;16.00;54.60
22383;DHT22;11359;45.802;13.530;2022-12-29T06:37:11;16.00;54.60
22383;DHT22;11359;45.802;13.530;2022-12-29T06:39:37;16.10;54.60
22383;DHT22;11359;45.802;13.530;2022-12-29T06:42:02;16.10;54.60
22383;DHT22;11359;45.802;13.530;2022-12-29T06:44:28;16.20;54.60
22383;DHT22;11359;45.802;13.530;2022-12-29T06:46:54;16.20;54.60
22383;DHT22;11359;45.802;13.530;2022-12-29T06:49:20;16.20;54.60
22383;DHT22;11359;45.802;13.530;2022-12-29T06:51:45;16.30;54.60
22383;DHT22;11359;45.802;13.530;2022-12-29T06:54:11;16.30;54.50
22383;DHT22;11359;45.802;13.530;2022-12-29T06:56:36;16.40;54.50
22383;DHT22;11359;45.802;13.530;2022-12-29T06:59:02;16.40;54.50
22383;DHT22;11359;45.802;13.530;2022-12-29T07:01:28;16.50;54.50
22383;DHT22;11359;45.802;13.530;2022-12-29T07:03:54;16.50;54.50
22383;DHT22;11359;45.802;13.530;2022-12-29T07:06:19;16.50;54.50
22383;DHT22;11359;45.802;13.530;2022-12-29T07:08:45;16.50;54.40
22383;DHT22;11359;45.802;13.530;2022-12-29T07:11:11;16.60;54.40
22383;DHT22;11359;45.802;13.530;2022-12-29T07:13:36;16.60;54.30
22383;DHT22;11359;45.802;13.530;2022-12-29T07:16:05;16.70;54.40
22383;DHT22;11359;45.802;13.530;2022-12-29T07:18:31;16.70;54.30
22383;DHT22;11359;45.802;13.530;2022-12-29T07:20:57;16.70;54.30
22383;DHT22;11359;45.802;13.530;2022-12-29T07:23:22;16.80;54.30
22383;DHT22;11359;45.802;13.530;2022-12-29T07:25:48;16.80;54.30
22383;DHT22;11359;45.802;13.530;2022-12-29T07:28:14;16.80;54.20
22383;DHT22;11359;45.802;13.530;2022-12-29T07:30:39;16.90;54.20
22383;DHT22;11359;45.802;13.530;2022-12-29T07:33:05;16.90;54.20
22383;DHT22;11359;45.802;13.530;2022-12-29T07:35:30;17.00;54.10
22383;DHT22;11359;45.802;13.530;2022-12-29T07:37:56;17.00;54.10
22383;DHT22;11359;45.802;13.530;2022-12-29T07:40:21;17.00;54.10
22383;DHT22;11359;45.802;13.530;2022-12-29T07:42:47;17.10;54.10
22383;DHT22;11359;45.802;13.530;2022-12-29T07:45:13;17.10;54.10
22383;DHT22;11359;45.802;13.530;2022-12-29T07:47:38;17.20;54.10
22383;DHT22;11359;45.802;13.530;2022-12-29T07:50:04;17.20;54.10
22383;DHT22;11359;45.802;13.530;2022-12-29T07:52:29;17.20;54.10
22383;DHT22;11359;45.802;13.530;2022-12-29T07:54:55;17.30;54.00
22383;DHT22;11359;45.802;13.530;2022-12-29T07:57:21;17.30;54.00
22383;DHT22;11359;45.802;13.530;2022-12-29T07:59:46;17.30;53.90
22383;DHT22;11359;45.802;13.530;2022-12-29T08:02:12;17.30;53.90
22383;DHT22;11359;45.802;13.530;2022-12-29T08:04:37;17.40;54.50
22383;DHT22;11359;45.802;13.530;2022-12-29T08:07:03;17.40;53.80
22383;DHT22;11359;45.802;13.530;2022-12-29T08:09:29;17.50;53.80
22383;DHT22;11359;45.802;13.530;2022-12-29T08:11:54;17.50;53.80
22383;DHT22;11359;45.802;13.530;2022-12-29T08:14:20;17.50;53.80
22383;DHT22;11359;45.802;13.530;2022-12-29T08:16:45;17.60;53.80
22383;DHT22;11359;45.802;13.530;2022-12-29T08:19:11;17.60;53.80
22383;DHT22;11359;45.802;13.530;2022-12-29T08:21:37;17.60;53.80
22383;DHT22;11359;45.802;13.530;2022-12-29T08:24:02;17.70;53.80
22383;DHT22;11359;45.802;13.530;2022-12-29T08:26:28;17.80;53.80
22383;DHT22;11359;45.802;13.530;2022-12-29T08:28:54;17.80;53.70
22383;DHT22;11359;45.802;13.530;2022-12-29T08:31:21;17.80;53.60
22383;DHT22;11359;45.802;13.530;2022-12-29T08:33:46;17.90;53.60
22383;DHT22;11359;45.802;13.530;2022-12-29T08:36:12;17.90;53.50
22383;DHT22;11359;45.802;13.530;2022-12-29T08:38:37;18.00;53.50
22383;DHT22;11359;45.802;13.530;2022-12-29T08:41:03;18.00;53.50
22383;DHT22;11359;45.802;13.530;2022-12-29T08:43:29;18.00;53.40
22383;DHT22;11359;45.802;13.530;2022-12-29T08:45:54;18.10;53.50
22383;DHT22;11359;45.802;13.530;2022-12-29T08:48:21;18.10;53.40
22383;DHT22;11359;45.802;13.530;2022-12-29T08:50:47;18.10;53.40
22383;DHT22;11359;45.802;13.530;2022-12-29T08:53:13;18.10;53.40
22383;DHT22;11359;45.802;13.530;2022-12-29T08:55:39;18.10;53.30
22383;DHT22;11359;45.802;13.530;2022-12-29T08:58:05;18.20;53.20
22383;DHT22;11359;45.802;13.530;2022-12-29T09:00:30;18.20;53.20
22383;DHT22;11359;45.802;13.530;2022-12-29T09:02:56;18.20;53.20
22383;DHT22;11359;45.802;13.530;2022-12-29T09:05:21;18.20;53.20
22383;DHT22;11359;45.802;13.530;2022-12-29T09:07:47;18.20;53.20
22383;DHT22;11359;45.802;13.530;2022-12-29T09:10:12;18.20;53.20
22383;DHT22;11359;45.802;13.530;2022-12-29T09:12:38;18.30;53.20
22383;DHT22;11359;45.802;13.530;2022-12-29T09:15:04;18.30;53.20
22383;DHT22;11359;45.802;13.530;2022-12-29T09:17:30;18.30;53.20
22383;DHT22;11359;45.802;13.530;2022-12-29T09:20:11;18.30;53.20
22383;DHT22;11359;45.802;13.530;2022-12-29T09:22:37;18.30;53.20
22383;DHT22;11359;45.802;13.530;2022-12-29T09:25:03;18.30;53.20
22383;DHT22;11359;45.802;13.530;2022-12-29T09:27:28;18.30;53.20
22383;DHT22;11359;45.802;13.530;2022-12-29T09:29:55;18.30;53.10
22383;DHT22;11359;45.802;13.530;2022-12-29T09:32:21;18.30;53.10
22383;DHT22;11359;45.802;13.530;2022-12-29T09:34:46;18.30;53.10
22383;DHT22;11359;45.802;13.530;2022-12-29T09:37:12;18.30;53.10
22383;DHT22;11359;45.802;13.530;2022-12-29T09:39:37;18.20;53.00
22383;DHT22;11359;45.802;13.530;2022-12-29T09:42:14;18.20;53.00
22383;DHT22;11359;45.802;13.530;2022-12-29T09:44:48;18.20;53.00
22383;DHT22;11359;45.802;13.530;2022-12-29T09:47:15;18.20;53.10
22383;DHT22;11359;45.802;13.530;2022-12-29T09:49:47;18.20;53.00
22383;DHT22;11359;45.802;13.530;2022-12-29T09:57:16;18.10;53.00
22383;DHT22;11359;45.802;13.530;2022-12-29T09:59:43;18.10;53.00
22383;DHT22;11359;45.802;13.530;2022-12-29T10:04:54;18.10;52.80
22383;DHT22;11359;45.802;13.530;2022-12-29T10:07:26;18.10;52.70
22383;DHT22;11359;45.802;13.530;2022-12-29T10:09:59;18.00;52.80
22383;DHT22;11359;45.802;13.530;2022-12-29T10:20:15;17.90;53.20
22383;DHT22;11359;45.802;13.530;2022-12-29T10:22:56;17.90;53.30
22383;DHT22;11359;45.802;13.530;2022-12-29T10:25:26;17.90;53.40
22383;DHT22;11359;45.802;13.530;2022-12-29T10:27:53;17.90;53.40
22383;DHT22;11359;45.802;13.530;2022-12-29T10:30:20;17.90;53.40
22383;DHT22;11359;45.802;13.530;2022-12-29T10:32:52;17.80;53.30
22383;DHT22;11359;45.802;13.530;2022-12-29T10:35:20;17.80;53.40
22383;DHT22;11359;45.802;13.530;2022-12-29T10:40:14;17.80;53.50
22383;DHT22;11359;45.802;13.530;2022-12-29T10:42:42;17.80;53.50
22383;DHT22;11359;45.802;13.530;2022-12-29T10:45:15;17.80;53.60
22383;DHT22;11359;45.802;13.530;2022-12-29T10:47:59;17.80;53.70
22383;DHT22;11359;45.802;13.530;2022-12-29T10:50:25;17.70;53.60
22383;DHT22;11359;45.802;13.530;2022-12-29T10:52:52;17.70;53.70
22383;DHT22;11359;45.802;13.530;2022-12-29T10:55:20;17.70;53.70
22383;DHT22;11359;45.802;13.530;2022-12-29T10:57:46;17.70;53.80
22383;DHT22;11359;45.802;13.530;2022-12-29T11:00:21;17.70;53.80
22383;DHT22;11359;45.802;13.530;2022-12-29T11:07:54;17.60;53.80
22383;DHT22;11359;45.802;13.530;2022-12-29T11:12:57;17.60;54.00
22383;DHT22;11359;45.802;13.530;2022-12-29T11:15:23;17.60;54.00
22383;DHT22;11359;45.802;13.530;2022-12-29T11:17:50;17.60;54.10
22383;DHT22;11359;45.802;13.530;2022-12-29T11:22:50;17.60;54.20
22383;DHT22;11359;45.802;13.530;2022-12-29T11:25:16;17.60;54.20
22383;DHT22;11359;45.802;13.530;2022-12-29T11:27:41;17.50;54.30
22383;DHT22;11359;45.802;13.530;2022-12-29T11:30:29;17.60;54.40
22383;DHT22;11359;45.802;13.530;2022-12-29T11:32:56;17.50;54.40
22383;DHT22;11359;45.802;13.530;2022-12-29T11:35:29;17.50;54.50
22383;DHT22;11359;45.802;13.530;2022-12-29T11:37:56;17.60;54.50
22383;DHT22;11359;45.802;13.530;2022-12-29T11:40:22;17.60;54.60
22383;DHT22;11359;45.802;13.530;2022-12-29T11:42:48;17.60;54.50
22383;DHT22;11359;45.802;13.530;2022-12-29T11:45:16;17.60;54.50
22383;DHT22;11359;45.802;13.530;2022-12-29T11:47:53;17.60;54.60
22383;DHT22;11359;45.802;13.530;2022-12-29T11:50:28;17.60;54.50
22383;DHT22;11359;45.802;13.530;2022-12-29T11:52:58;17.60;54.60
22383;DHT22;11359;45.802;13.530;2022-12-29T11:55:25;17.60;54.60
22383;DHT22;11359;45.802;13.530;2022-12-29T11:57:52;17.70;54.70
22383;DHT22;11359;45.802;13.530;2022-12-29T12:00:20;17.60;54.80
22383;DHT22;11359;45.802;13.530;2022-12-29T12:02:58;17.70;54.80
22383;DHT22;11359;45.802;13.530;2022-12-29T12:05:29;17.70;54.80
22383;DHT22;11359;45.802;13.530;2022-12-29T12:08:18;17.70;54.60
22383;DHT22;11359;45.802;13.530;2022-12-29T12:10:56;17.80;54.70
22383;DHT22;11359;45.802;13.530;2022-12-29T12:13:25;17.80;54.60
22383;DHT22;11359;45.802;13.530;2022-12-29T12:15:55;17.80;54.60
22383;DHT22;11359;45.802;13.530;2022-12-29T12:18:32;17.80;54.50
22383;DHT22;11359;45.802;13.530;2022-12-29T12:28:42;17.90;54.70
22383;DHT22;11359;45.802;13.530;2022-12-29T12:31:14;18.00;54.80
22383;DHT22;11359;45.802;13.530;2022-12-29T12:33:41;18.00;54.80
22383;DHT22;11359;45.802;13.530;2022-12-29T12:47:18;18.30;54.50
22383;DHT22;11359;45.802;13.530;2022-12-29T12:58:10;18.30;54.40
22383;DHT22;11359;45.802;13.530;2022-12-29T13:00:05;18.40;54.40
22383;DHT22;11359;45.802;13.530;2022-12-29T13:08:33;18.50;54.10
22383;DHT22;11359;45.802;13.530;2022-12-29T13:23:00;18.60;53.60
22383;DHT22;11359;45.802;13.530;2022-12-29T13:40:48;18.60;53.10
22383;DHT22;11359;45.802;13.530;2022-12-29T13:43:14;18.70;53.20
22383;DHT22;11359;45.802;13.530;2022-12-29T13:45:41;18.70;53.10
22383;DHT22;11359;45.802;13.530;2022-12-29T13:48:17;18.70;53.10
22383;DHT22;11359;45.802;13.530;2022-12-29T13:50:45;18.70;53.20
22383;DHT22;11359;45.802;13.530;2022-12-29T13:53:19;18.70;53.10
22383;DHT22;11359;45.802;13.530;2022-12-29T13:56:07;18.80;53.20
22383;DHT22;11359;45.802;13.530;2022-12-29T14:03:49;18.80;53.30
22383;DHT22;11359;45.802;13.530;2022-12-29T14:08:44;18.90;53.30
22383;DHT22;11359;45.802;13.530;2022-12-29T14:11:10;19.00;53.40
22383;DHT22;11359;45.802;13.530;2022-12-29T14:13:40;19.00;53.20
22383;DHT22;11359;45.802;13.530;2022-12-29T14:16:06;19.00;53.10
22383;DHT22;11359;45.802;13.530;2022-12-29T14:18:34;19.00;53.00
22383;DHT22;11359;45.802;13.530;2022-12-29T14:23:44;19.10;53.00
22383;DHT22;11359;45.802;13.530;2022-12-29T14:28:43;19.10;52.40
22383;DHT22;11359;45.802;13.530;2022-12-29T14:34:14;19.10;52.50
22383;DHT22;11359;45.802;13.530;2022-12-29T14:37:17;19.10;52.60
22383;DHT22;11359;45.802;13.530;2022-12-29T14:44:35;19.20;52.70
22383;DHT22;11359;45.802;13.530;2022-12-29T14:47:11;19.20;52.70
22383;DHT22;11359;45.802;13.530;2022-12-29T14:49:42;19.20;52.60
22383;DHT22;11359;45.802;13.530;2022-12-29T14:52:17;19.20;52.40
22383;DHT22;11359;45.802;13.530;2022-12-29T14:54:45;19.20;52.30
22383;DHT22;11359;45.802;13.530;2022-12-29T14:57:46;19.20;52.40
22383;DHT22;11359;45.802;13.530;2022-12-29T15:02:33;19.30;52.40
22383;DHT22;11359;45.802;13.530;2022-12-29T15:04:59;19.30;52.40
22383;DHT22;11359;45.802;13.530;2022-12-29T15:07:26;19.30;53.00
22383;DHT22;11359;45.802;13.530;2022-12-29T15:09:58;19.40;52.40
22383;DHT22;11359;45.802;13.530;2022-12-29T15:14:55;19.40;52.40
22383;DHT22;11359;45.802;13.530;2022-12-29T15:17:27;19.50;52.30
22383;DHT22;11359;45.802;13.530;2022-12-29T15:19:54;19.50;52.10
22383;DHT22;11359;45.802;13.530;2022-12-29T15:22:20;19.50;52.00
22383;DHT22;11359;45.802;13.530;2022-12-29T15:24:46;19.50;51.90
22383;DHT22;11359;45.802;13.530;2022-12-29T15:27:15;19.50;51.90
22383;DHT22;11359;45.802;13.530;2022-12-29T15:29:45;19.50;51.70
22383;DHT22;11359;45.802;13.530;2022-12-29T15:34:43;19.50;51.60
22383;DHT22;11359;45.802;13.530;2022-12-29T15:37:09;19.50;51.60
22383;DHT22;11359;45.802;13.530;2022-12-29T15:39:34;19.50;51.60
22383;DHT22;11359;45.802;13.530;2022-12-29T15:42:13;19.50;51.60
22383;DHT22;11359;45.802;13.530;2022-12-29T15:44:44;19.50;51.60
22383;DHT22;11359;45.802;13.530;2022-12-29T15:47:17;19.50;52.30
22383;DHT22;11359;45.802;13.530;2022-12-29T15:49:44;19.50;51.60
22383;DHT22;11359;45.802;13.530;2022-12-29T15:52:13;19.60;51.60
22383;DHT22;11359;45.802;13.530;2022-12-29T15:54:42;19.60;51.50
22383;DHT22;11359;45.802;13.530;2022-12-29T15:57:16;19.60;51.50
22383;DHT22;11359;45.802;13.530;2022-12-29T15:59:46;19.60;51.40
22383;DHT22;11359;45.802;13.530;2022-12-29T16:02:13;19.60;51.20
22383;DHT22;11359;45.802;13.530;2022-12-29T16:04:38;19.60;51.20
22383;DHT22;11359;45.802;13.530;2022-12-29T16:07:05;19.60;51.30
22383;DHT22;11359;45.802;13.530;2022-12-29T16:09:32;19.60;51.40
22383;DHT22;11359;45.802;13.530;2022-12-29T16:12:00;19.60;51.40
22383;DHT22;11359;45.802;13.530;2022-12-29T16:14:42;19.70;51.50
22383;DHT22;11359;45.802;13.530;2022-12-29T16:17:14;19.70;51.50
22383;DHT22;11359;45.802;13.530;2022-12-29T16:19:41;19.70;51.50
22383;DHT22;11359;45.802;13.530;2022-12-29T16:22:11;19.70;51.40
22383;DHT22;11359;45.802;13.530;2022-12-29T16:24:38;19.80;51.50
22383;DHT22;11359;45.802;13.530;2022-12-29T16:29:30;19.80;51.40
22383;DHT22;11359;45.802;13.530;2022-12-29T16:31:57;19.80;51.30
22383;DHT22;11359;45.802;13.530;2022-12-29T16:36:59;19.80;51.20
22383;DHT22;11359;45.802;13.530;2022-12-29T16:41:52;19.90;51.20
22383;DHT22;11359;45.802;13.530;2022-12-29T16:47:29;19.90;51.20
22383;DHT22;11359;45.802;13.530;2022-12-29T16:49:32;19.90;51.20
22383;DHT22;11359;45.802;13.530;2022-12-29T16:51:58;19.90;51.10
22383;DHT22;11359;45.802;13.530;2022-12-29T16:54:26;20.00;51.20
22383;DHT22;11359;45.802;13.530;2022-12-29T16:56:53;20.00;51.10
22383;DHT22;11359;45.802;13.530;2022-12-29T17:01:45;20.00;51.10
22383;DHT22;11359;45.802;13.530;2022-12-29T17:04:11;20.00;51.00
22383;DHT22;11359;45.802;13.530;2022-12-29T17:06:37;20.00;51.00
22383;DHT22;11359;45.802;13.530;2022-12-29T17:09:13;20.00;50.90
22383;DHT22;11359;45.802;13.530;2022-12-29T17:11:41;20.00;50.90
22383;DHT22;11359;45.802;13.530;2022-12-29T17:17:01;20.10;50.90
22383;DHT22;11359;45.802;13.530;2022-12-29T17:19:31;20.10;50.90
22383;DHT22;11359;45.802;13.530;2022-12-29T17:21:57;20.10;50.80
22383;DHT22;11359;45.802;13.530;2022-12-29T17:24:23;20.10;50.80
22383;DHT22;11359;45.802;13.530;2022-12-29T17:26:49;20.10;50.80
22383;DHT22;11359;45.802;13.530;2022-12-29T17:29:20;20.10;50.80
22383;DHT22;11359;45.802;13.530;2022-12-29T17:31:46;20.10;50.80
22383;DHT22;11359;45.802;13.530;2022-12-29T17:34:12;20.10;50.80
22383;DHT22;11359;45.802;13.530;2022-12-29T17:36:38;20.10;50.70
22383;DHT22;11359;45.802;13.530;2022-12-29T17:39:04;20.20;50.70
22383;DHT22;11359;45.802;13.530;2022-12-29T17:41:31;20.20;50.70
22383;DHT22;11359;45.802;13.530;2022-12-29T17:43:57;20.20;50.70
22383;DHT22;11359;45.802;13.530;2022-12-29T17:46:23;20.20;50.70
22383;DHT22;11359;45.802;13.530;2022-12-29T17:48:49;20.20;50.60
22383;DHT22;11359;45.802;13.530;2022-12-29T17:51:14;20.20;50.60
22383;DHT22;11359;45.802;13.530;2022-12-29T17:53:40;20.20;50.70
22383;DHT22;11359;45.802;13.530;2022-12-29T17:56:06;20.20;50.60
22383;DHT22;11359;45.802;13.530;2022-12-29T17:58:31;20.20;50.60
22383;DHT22;11359;45.802;13.530;2022-12-29T18:00:58;20.30;50.70
22383;DHT22;11359;45.802;13.530;2022-12-29T18:03:28;20.30;50.70
22383;DHT22;11359;45.802;13.530;2022-12-29T18:05:54;20.30;50.70
22383;DHT22;11359;45.802;13.530;2022-12-29T18:08:20;20.30;50.60
22383;DHT22;11359;45.802;13.530;2022-12-29T18:10:46;20.30;50.50
22383;DHT22;11359;45.802;13.530;2022-12-29T18:13:32;20.30;50.60
22383;DHT22;11359;45.802;13.530;2022-12-29T18:15:59;20.30;50.60
22383;DHT22;11359;45.802;13.530;2022-12-29T18:18:25;20.30;50.60